Oatsville, Indiana
Current Conditions -  °F | °C
As of 3:55 PM on Monday 20 Oct 2014 (Local Time) from KDCY Reporting Station
Broken Clouds Broken Clouds  
Wind Chill: 70°   Ceiling: 7000
Heat Index: 70°   Visibility: 10mi
Dew Point: 51°   Wind: 9mph
Humidity: 52%   Direction: 290°WNW
Pressure: 29.87"   Gusts: 16mph
Location:  38.4723°N, 87.3105°W
Report Text: KDCY 202055Z AUTO 29008G14KT 10SM SCT050 BKN070 21/11 A2987 RMK AO2 T02100107
Loading
Personal Weather Stations






























Interactive Weather Map
Tropical Storm Tracking
New forecast layout! Learn more

10-Day Weather Forecast

Advertisements
Track Severe Weather on mobile